Time;durP1;ratioP1;P1;durP2;ratioP2;P2;SDS_P1;SDS_P2;PMS_P1;PMS_P2;Temp;Humidity;BMP_temperature;BMP_pressure;BME280_temperature;BME280_humidity;BME280_pressure;Samples;Min_cycle;Max_cycle;Signal;HPM_P1;HPM_P2
2022/01/30 00:01:03;;;;;;;58.00;2.60;;;;;;;;;;5054164;28;20572;-71
2022/01/30 00:03:30;;;;;;;58.07;2.63;;;;;;;;;;5053885;28;20222;-71
2022/01/30 00:05:57;;;;;;;58.50;2.75;;;;;;;;;;5053995;28;20459;-71
2022/01/30 00:08:24;;;;;;;58.23;2.90;;;;;;;;;;5053580;28;20217;-71
2022/01/30 00:10:57;;;;;;;58.28;2.83;;;;;;;;;;5055133;28;20483;-71
2022/01/30 00:13:26;;;;;;;58.50;3.20;;;;;;;;;;5053993;28;20547;-71
2022/01/30 00:15:56;;;;;;;58.35;3.13;;;;;;;;;;5053545;28;20206;-71
2022/01/30 00:18:41;;;;;;;58.20;2.90;;;;;;;;;;5053529;28;20206;-71
2022/01/30 00:21:13;;;;;;;57.97;3.00;;;;;;;;;;5053800;28;20260;-71
2022/01/30 00:23:46;;;;;;;59.13;2.85;;;;;;;;;;5053285;28;20233;-71
2022/01/30 00:26:15;;;;;;;59.07;3.20;;;;;;;;;;5053683;28;20201;-71
2022/01/30 00:28:42;;;;;;;58.88;2.80;;;;;;;;;;5053315;28;20449;-71
2022/01/30 00:31:13;;;;;;;58.13;2.83;;;;;;;;;;5053503;28;20246;-71
2022/01/30 00:33:40;;;;;;;58.10;3.10;;;;;;;;;;5053248;28;20257;-71
2022/01/30 00:36:07;;;;;;;57.90;2.70;;;;;;;;;;5053378;28;20464;-71
2022/01/30 00:38:35;;;;;;;57.90;2.70;;;;;;;;;;5053026;28;20216;-71
2022/01/30 00:41:02;;;;;;;58.20;2.90;;;;;;;;;;5053308;28;20480;-71
2022/01/30 00:43:29;;;;;;;57.92;2.85;;;;;;;;;;5053238;28;20472;-71
2022/01/30 00:45:56;;;;;;;58.40;3.00;;;;;;;;;;5053069;28;20229;-71
2022/01/30 00:48:25;;;;;;;58.20;2.97;;;;;;;;;;5053210;28;20213;-71
2022/01/30 00:50:52;;;;;;;57.63;2.50;;;;;;;;;;5056821;28;20208;-71
2022/01/30 00:53:20;;;;;;;58.57;2.90;;;;;;;;;;5072208;28;20909;-71
2022/01/30 00:55:47;;;;;;;59.80;3.00;;;;;;;;;;5073210;28;20474;-71
2022/01/30 00:58:15;;;;;;;58.00;2.72;;;;;;;;;;5073120;28;20452;-71
2022/01/30 01:00:42;;;;;;;57.90;2.65;;;;;;;;;;5072949;28;20312;-71
2022/01/30 01:03:09;;;;;;;58.97;3.15;;;;;;;;;;5072788;28;20260;-71
2022/01/30 01:05:38;;;;;;;57.58;2.63;;;;;;;;;;5072267;28;20201;-71
2022/01/30 01:08:12;;;;;;;58.10;2.80;;;;;;;;;;5072835;28;20206;-71
2022/01/30 01:10:44;;;;;;;57.67;2.70;;;;;;;;;;5072741;28;20816;-71
2022/01/30 01:13:24;;;;;;;59.57;3.00;;;;;;;;;;5072447;28;20571;-71
2022/01/30 01:24:07;;;;;;;58.97;3.23;;;;;;;;;;5051489;28;20888;-71
2022/01/30 01:26:35;;;;;;;57.93;3.20;;;;;;;;;;5051793;28;20531;-72
2022/01/30 01:29:02;;;;;;;58.60;3.03;;;;;;;;;;5052277;28;20448;-72
2022/01/30 01:31:29;;;;;;;58.37;3.30;;;;;;;;;;5051908;28;20441;-72
2022/01/30 01:34:10;;;;;;;58.10;2.93;;;;;;;;;;5052075;28;20870;-71
2022/01/30 01:36:38;;;;;;;59.40;3.30;;;;;;;;;;5051950;28;20469;-71
2022/01/30 01:39:06;;;;;;;58.47;3.43;;;;;;;;;;5051927;28;20293;-71
2022/01/30 01:41:36;;;;;;;60.93;3.50;;;;;;;;;;5052168;28;20574;-71
2022/01/30 01:44:04;;;;;;;58.37;3.37;;;;;;;;;;5052163;28;20555;-71
2022/01/30 01:46:34;;;;;;;59.97;3.57;;;;;;;;;;5051603;28;20475;-71
2022/01/30 01:49:03;;;;;;;58.37;3.10;;;;;;;;;;5051807;28;20829;-71
2022/01/30 01:51:32;;;;;;;59.27;3.10;;;;;;;;;;5051855;28;20551;-71
2022/01/30 01:54:01;;;;;;;58.97;3.50;;;;;;;;;;5049984;28;20481;-71
2022/01/30 01:56:30;;;;;;;58.50;3.40;;;;;;;;;;5052076;28;20667;-71
2022/01/30 01:58:57;;;;;;;58.97;3.20;;;;;;;;;;5051710;28;20448;-71
2022/01/30 02:01:26;;;;;;;58.77;3.57;;;;;;;;;;5051932;28;20480;-71
2022/01/30 02:03:54;;;;;;;58.50;3.70;;;;;;;;;;5051503;28;20500;-71
2022/01/30 02:06:23;;;;;;;59.47;3.50;;;;;;;;;;5051462;28;20449;-71
2022/01/30 02:08:54;;;;;;;58.67;3.73;;;;;;;;;;5052563;28;20622;-71
2022/01/30 02:11:33;;;;;;;59.73;3.40;;;;;;;;;;5051940;28;20987;-72
2022/01/30 02:14:19;;;;;;;59.10;3.43;;;;;;;;;;5051420;28;20519;-71
2022/01/30 02:25:16;;;;;;;58.47;3.57;;;;;;;;;;5049902;28;21679;-71
2022/01/30 02:27:43;;;;;;;59.10;3.40;;;;;;;;;;5051047;28;20506;-71
2022/01/30 02:30:13;;;;;;;58.27;3.00;;;;;;;;;;5051460;28;20531;-71
2022/01/30 02:32:40;;;;;;;58.50;3.20;;;;;;;;;;5051011;28;20826;-71
2022/01/30 02:35:08;;;;;;;58.37;3.00;;;;;;;;;;5051266;28;20455;-71
2022/01/30 02:37:36;;;;;;;58.00;2.80;;;;;;;;;;5051489;28;20478;-71
2022/01/30 02:40:07;;;;;;;58.20;2.80;;;;;;;;;;5049525;28;20544;-71
2022/01/30 02:42:38;;;;;;;58.50;3.40;;;;;;;;;;5051204;28;21039;-71
2022/01/30 02:45:09;;;;;;;59.43;3.20;;;;;;;;;;5051688;28;20437;-71
2022/01/30 02:47:52;;;;;;;59.20;3.40;;;;;;;;;;5050933;28;20453;-71
2022/01/30 02:50:32;;;;;;;58.23;3.03;;;;;;;;;;5051591;28;20457;-71
2022/01/30 02:53:03;;;;;;;59.07;3.80;;;;;;;;;;5050954;28;20571;-71
2022/01/30 02:55:30;;;;;;;58.88;3.47;;;;;;;;;;5051057;28;20539;-71
2022/01/30 02:57:57;;;;;;;59.73;4.07;;;;;;;;;;5049616;28;20212;-71
2022/01/30 03:00:25;;;;;;;58.90;3.47;;;;;;;;;;5051455;28;20886;-71
2022/01/30 03:02:52;;;;;;;59.28;4.20;;;;;;;;;;5051042;28;20242;-71
2022/01/30 03:05:19;;;;;;;58.63;3.40;;;;;;;;;;5050983;28;20203;-71
2022/01/30 03:07:46;;;;;;;58.20;3.43;;;;;;;;;;5050338;28;20826;-71
2022/01/30 03:10:15;;;;;;;59.88;3.95;;;;;;;;;;5051411;28;20495;-71
2022/01/30 03:12:42;;;;;;;59.67;4.03;;;;;;;;;;5050772;28;20233;-71
2022/01/30 03:15:09;;;;;;;59.03;3.50;;;;;;;;;;5051046;28;20548;-72
2022/01/30 03:17:37;;;;;;;60.67;4.00;;;;;;;;;;5052706;28;20456;-69
2022/01/30 03:20:04;;;;;;;58.13;3.10;;;;;;;;;;5055083;28;20548;-70
2022/01/30 03:22:31;;;;;;;58.87;3.30;;;;;;;;;;5054886;28;20492;-70
2022/01/30 03:24:59;;;;;;;58.57;3.47;;;;;;;;;;5054797;28;20502;-70
2022/01/30 03:27:28;;;;;;;64.10;3.70;;;;;;;;;;5053725;28;20480;-70
2022/01/30 03:30:04;;;;;;;58.85;3.17;;;;;;;;;;5068352;28;20448;-70
2022/01/30 03:32:32;;;;;;;59.90;3.20;;;;;;;;;;5074408;28;20225;-70
2022/01/30 03:34:59;;;;;;;58.00;2.83;;;;;;;;;;5074248;28;20217;-70
2022/01/30 03:37:26;;;;;;;66.67;3.70;;;;;;;;;;5074496;28;20539;-69
2022/01/30 03:39:53;;;;;;;58.30;3.40;;;;;;;;;;5074658;28;20443;-70
2022/01/30 03:42:20;;;;;;;58.70;3.65;;;;;;;;;;5074473;28;20321;-70
2022/01/30 03:44:49;;;;;;;58.27;3.07;;;;;;;;;;5074540;28;20235;-70
2022/01/30 03:47:17;;;;;;;59.28;3.30;;;;;;;;;;5073470;28;20531;-70
2022/01/30 03:49:44;;;;;;;58.07;2.93;;;;;;;;;;5074240;28;20297;-70
2022/01/30 03:52:11;;;;;;;58.37;3.17;;;;;;;;;;5074327;28;20443;-70
2022/01/30 03:54:38;;;;;;;59.90;3.20;;;;;;;;;;5074115;28;20944;-70
2022/01/30 03:57:06;;;;;;;61.00;3.17;;;;;;;;;;5074219;28;20538;-69
2022/01/30 03:59:33;;;;;;;60.10;3.47;;;;;;;;;;5074133;28;20448;-70
2022/01/30 04:02:01;;;;;;;59.50;4.30;;;;;;;;;;5071864;28;20480;-70
2022/01/30 04:04:29;;;;;;;60.40;3.20;;;;;;;;;;5074613;28;20475;-70
2022/01/30 04:06:57;;;;;;;60.40;3.40;;;;;;;;;;5074664;28;20474;-69
2022/01/30 04:09:25;;;;;;;59.40;3.50;;;;;;;;;;5073583;28;20448;-70
2022/01/30 04:11:52;;;;;;;58.83;3.33;;;;;;;;;;5073993;28;20878;-70
2022/01/30 04:14:19;;;;;;;58.30;3.20;;;;;;;;;;5073334;28;20905;-70
2022/01/30 04:16:46;;;;;;;58.47;3.40;;;;;;;;;;5074255;28;20547;-71
2022/01/30 04:19:15;;;;;;;58.92;3.33;;;;;;;;;;5074140;28;20450;-70
2022/01/30 04:21:42;;;;;;;58.22;3.25;;;;;;;;;;5073689;28;20218;-70
2022/01/30 04:24:10;;;;;;;58.85;3.20;;;;;;;;;;5073616;28;20236;-70
2022/01/30 04:26:37;;;;;;;58.67;3.33;;;;;;;;;;5073485;28;20629;-70
2022/01/30 04:29:04;;;;;;;62.20;3.93;;;;;;;;;;5071591;28;20452;-70
2022/01/30 04:31:32;;;;;;;59.10;3.47;;;;;;;;;;5070692;28;20884;-70
2022/01/30 04:33:59;;;;;;;60.50;3.78;;;;;;;;;;5053408;28;20476;-70
2022/01/30 04:36:33;;;;;;;59.92;3.55;;;;;;;;;;5053436;28;20308;-70
2022/01/30 04:39:07;;;;;;;59.10;3.33;;;;;;;;;;5053232;28;20237;-70
2022/01/30 04:52:51;;;;;;;65.03;3.80;;;;;;;;;;5053169;28;20722;-70
2022/01/30 04:58:14;;;;;;;60.47;4.03;;;;;;;;;;5053053;28;20769;-70
2022/01/30 05:03:51;;;;;;;63.45;4.35;;;;;;;;;;5040790;28;20225;-70
2022/01/30 05:06:29;;;;;;;63.83;4.90;;;;;;;;;;5053424;28;20210;-70
2022/01/30 05:08:59;;;;;;;61.75;4.13;;;;;;;;;;5052244;28;20510;-70
2022/01/30 05:11:26;;;;;;;60.85;4.43;;;;;;;;;;5052854;28;20297;-70
2022/01/30 05:13:53;;;;;;;59.20;4.13;;;;;;;;;;5052428;28;20258;-70
2022/01/30 05:16:23;;;;;;;62.90;5.00;;;;;;;;;;5052582;28;20833;-70
2022/01/30 05:18:50;;;;;;;60.23;3.97;;;;;;;;;;5052332;28;20460;-70
2022/01/30 05:21:18;;;;;;;60.67;4.77;;;;;;;;;;5052456;28;20812;-70
2022/01/30 05:23:45;;;;;;;63.80;4.97;;;;;;;;;;5052530;28;20488;-70
2022/01/30 05:26:14;;;;;;;64.60;4.70;;;;;;;;;;5052484;28;20208;-71
2022/01/30 05:28:42;;;;;;;60.65;4.70;;;;;;;;;;5051677;28;20297;-71
2022/01/30 05:31:09;;;;;;;66.75;4.65;;;;;;;;;;5052411;28;20237;-71
2022/01/30 05:33:36;;;;;;;61.97;5.18;;;;;;;;;;5051809;28;20309;-70
2022/01/30 05:36:04;;;;;;;64.30;5.40;;;;;;;;;;5050854;28;20245;-70
2022/01/30 05:38:32;;;;;;;62.35;4.60;;;;;;;;;;5052248;28;20455;-71
2022/01/30 05:41:00;;;;;;;65.05;4.60;;;;;;;;;;5051883;28;20213;-70
2022/01/30 05:43:31;;;;;;;71.40;4.90;;;;;;;;;;5052232;28;20317;-70
2022/01/30 05:46:09;;;;;;;62.72;4.60;;;;;;;;;;5052127;28;20246;-70
2022/01/30 05:48:36;;;;;;;61.97;4.40;;;;;;;;;;5051733;28;20263;-70
2022/01/30 05:51:03;;;;;;;60.28;4.35;;;;;;;;;;5052242;28;20453;-70
2022/01/30 05:53:31;;;;;;;63.00;4.25;;;;;;;;;;5051724;28;20314;-70
2022/01/30 05:55:58;;;;;;;60.90;5.00;;;;;;;;;;5051528;28;20237;-70
2022/01/30 05:58:25;;;;;;;64.78;4.68;;;;;;;;;;5051782;28;20209;-70
2022/01/30 06:00:53;;;;;;;60.40;4.85;;;;;;;;;;5052209;28;20210;-70
2022/01/30 06:03:21;;;;;;;61.33;4.90;;;;;;;;;;5052504;28;20321;-70
2022/01/30 06:05:49;;;;;;;62.03;5.45;;;;;;;;;;5050198;28;20202;-70
2022/01/30 06:08:37;;;;;;;67.32;4.85;;;;;;;;;;5051354;28;20217;-70
2022/01/30 06:11:03;;;;;;;64.40;5.65;;;;;;;;;;5051251;28;20207;-70
2022/01/30 06:13:31;;;;;;;67.43;5.00;;;;;;;;;;5051621;28;20589;-70
2022/01/30 06:15:59;;;;;;;67.90;6.47;;;;;;;;;;5051537;28;20213;-70
2022/01/30 06:18:26;;;;;;;60.00;4.68;;;;;;;;;;5051516;28;20679;-70
2022/01/30 06:20:53;;;;;;;63.80;4.50;;;;;;;;;;5051802;28;20213;-71
2022/01/30 06:23:22;;;;;;;60.65;4.35;;;;;;;;;;5051488;28;21020;-70
2022/01/30 06:25:49;;;;;;;64.30;5.15;;;;;;;;;;5051526;28;20197;-70
2022/01/30 06:28:16;;;;;;;78.28;6.30;;;;;;;;;;5051295;28;20589;-70
2022/01/30 06:30:44;;;;;;;65.28;5.70;;;;;;;;;;5051584;28;20648;-70
2022/01/30 06:33:12;;;;;;;64.27;5.13;;;;;;;;;;5051614;28;20222;-70
2022/01/30 06:35:39;;;;;;;62.60;5.22;;;;;;;;;;5051162;28;20467;-70
2022/01/30 06:38:07;;;;;;;60.95;4.85;;;;;;;;;;5054655;28;20208;-70
2022/01/30 06:40:34;;;;;;;66.15;5.38;;;;;;;;;;5071697;28;20241;-70
2022/01/30 06:43:01;;;;;;;60.42;4.47;;;;;;;;;;5071392;28;20229;-70
2022/01/30 06:45:29;;;;;;;62.60;4.60;;;;;;;;;;5071668;28;20287;-70
2022/01/30 06:47:56;;;;;;;65.68;5.20;;;;;;;;;;5070985;28;20207;-70
2022/01/30 06:50:25;;;;;;;65.65;4.20;;;;;;;;;;5071206;28;20300;-70
2022/01/30 06:52:52;;;;;;;61.30;5.10;;;;;;;;;;5073423;28;20218;-70
2022/01/30 06:55:19;;;;;;;62.30;5.13;;;;;;;;;;5074889;28;20220;-70
2022/01/30 06:57:47;;;;;;;71.20;4.88;;;;;;;;;;5075249;28;20511;-70
2022/01/30 07:00:14;;;;;;;65.05;4.82;;;;;;;;;;5075426;28;20209;-70
2022/01/30 07:02:41;;;;;;;60.03;4.85;;;;;;;;;;5075107;28;20717;-70
2022/01/30 07:05:09;;;;;;;62.90;4.38;;;;;;;;;;5075540;28;20202;-70
2022/01/30 07:07:37;;;;;;;61.70;5.15;;;;;;;;;;5074695;28;20768;-70
2022/01/30 07:10:06;;;;;;;64.38;4.30;;;;;;;;;;5066055;28;20202;-70
2022/01/30 07:12:34;;;;;;;68.28;5.00;;;;;;;;;;5054841;28;20576;-70
2022/01/30 07:15:01;;;;;;;71.97;6.50;;;;;;;;;;5054692;28;20709;-70
2022/01/30 07:17:28;;;;;;;60.50;4.55;;;;;;;;;;5054459;28;20296;-68
2022/01/30 07:19:55;;;;;;;63.25;4.38;;;;;;;;;;5054737;28;20239;-70
2022/01/30 07:22:22;;;;;;;59.47;4.28;;;;;;;;;;5054945;28;20312;-70
2022/01/30 07:24:51;;;;;;;66.32;5.35;;;;;;;;;;5055086;28;20285;-70
2022/01/30 07:27:18;;;;;;;67.22;4.22;;;;;;;;;;5054740;28;20341;-70
2022/01/30 07:29:45;;;;;;;64.30;5.13;;;;;;;;;;5054381;28;20297;-70
2022/01/30 07:32:12;;;;;;;59.42;4.13;;;;;;;;;;5054813;28;20456;-70
2022/01/30 07:34:39;;;;;;;62.15;4.57;;;;;;;;;;5054423;28;20216;-70
2022/01/30 07:37:06;;;;;;;61.45;3.88;;;;;;;;;;5054221;28;20208;-70
2022/01/30 07:39:36;;;;;;;63.65;4.93;;;;;;;;;;5054781;28;20297;-70
2022/01/30 07:42:05;;;;;;;61.95;4.20;;;;;;;;;;5053432;28;20570;-70
2022/01/30 07:44:32;;;;;;;61.75;4.65;;;;;;;;;;5054437;28;20259;-70
2022/01/30 07:46:59;;;;;;;62.90;4.70;;;;;;;;;;5054483;28;20213;-70
2022/01/30 07:49:26;;;;;;;65.85;5.00;;;;;;;;;;5054903;28;20214;-70
2022/01/30 07:51:54;;;;;;;64.03;4.82;;;;;;;;;;5055251;28;20202;-70
2022/01/30 07:54:21;;;;;;;64.53;4.85;;;;;;;;;;5054889;28;20233;-71
2022/01/30 07:56:48;;;;;;;75.07;4.85;;;;;;;;;;5054144;28;20211;-71
2022/01/30 07:59:17;;;;;;;61.05;3.80;;;;;;;;;;5054666;28;20237;-70
2022/01/30 08:01:45;;;;;;;66.38;4.93;;;;;;;;;;5054607;28;20556;-71
2022/01/30 08:04:12;;;;;;;63.63;4.53;;;;;;;;;;5053965;28;20241;-71
2022/01/30 08:06:39;;;;;;;66.28;5.25;;;;;;;;;;5055055;28;20464;-71
2022/01/30 08:09:06;;;;;;;65.53;4.25;;;;;;;;;;5054251;28;20296;-70
2022/01/30 08:11:33;;;;;;;61.83;5.05;;;;;;;;;;5054592;28;20206;-71
2022/01/30 08:14:00;;;;;;;63.90;5.10;;;;;;;;;;5053788;28;20244;-71
2022/01/30 08:16:29;;;;;;;64.88;5.45;;;;;;;;;;5055075;28;20202;-71
2022/01/30 08:18:56;;;;;;;66.93;5.47;;;;;;;;;;5053850;28;20210;-70
2022/01/30 08:21:23;;;;;;;71.63;7.05;;;;;;;;;;5053845;28;20207;-70
2022/01/30 08:23:51;;;;;;;63.25;5.32;;;;;;;;;;5054007;28;20230;-71
2022/01/30 08:26:18;;;;;;;63.93;5.43;;;;;;;;;;5053686;28;20210;-70
2022/01/30 08:28:45;;;;;;;67.55;4.82;;;;;;;;;;5053001;28;20548;-71
2022/01/30 08:31:12;;;;;;;62.47;4.65;;;;;;;;;;5053398;28;20217;-71
2022/01/30 08:33:41;;;;;;;61.08;4.88;;;;;;;;;;5053545;28;20285;-70
2022/01/30 08:36:08;;;;;;;67.20;5.57;;;;;;;;;;5053012;28;20694;-70
2022/01/30 08:38:35;;;;;;;63.55;4.85;;;;;;;;;;5053211;28;20541;-71
2022/01/30 08:41:02;;;;;;;67.00;5.97;;;;;;;;;;5053448;28;20210;-71
2022/01/30 08:43:30;;;;;;;64.53;5.05;;;;;;;;;;5053468;28;20234;-71
2022/01/30 08:45:59;;;;;;;61.35;4.90;;;;;;;;;;5069801;28;20213;-71
2022/01/30 08:48:27;;;;;;;62.00;4.72;;;;;;;;;;5073186;28;20254;-71
2022/01/30 08:50:56;;;;;;;65.97;4.85;;;;;;;;;;5072712;28;20201;-71
2022/01/30 08:53:23;;;;;;;66.13;4.72;;;;;;;;;;5073142;28;20309;-71
2022/01/30 08:55:51;;;;;;;68.95;4.70;;;;;;;;;;5072415;28;20245;-70
2022/01/30 08:58:18;;;;;;;70.47;4.82;;;;;;;;;;5072643;28;20720;-70
2022/01/30 09:00:45;;;;;;;67.30;4.63;;;;;;;;;;5073057;28;20749;-71
2022/01/30 09:03:13;;;;;;;70.28;4.82;;;;;;;;;;5072757;28;20690;-71
2022/01/30 09:05:40;;;;;;;64.65;4.22;;;;;;;;;;5072955;28;20237;-71
2022/01/30 09:08:08;;;;;;;68.47;4.55;;;;;;;;;;5072355;28;20252;-71
2022/01/30 09:10:37;;;;;;;61.83;4.30;;;;;;;;;;5072687;28;20296;-71
2022/01/30 09:13:04;;;;;;;64.25;4.35;;;;;;;;;;5072629;28;20256;-70
2022/01/30 09:15:37;;;;;;;68.80;4.10;;;;;;;;;;5070906;28;20248;-70
2022/01/30 09:18:08;;;;;;;68.05;4.07;;;;;;;;;;5072439;28;20223;-71
2022/01/30 09:20:35;;;;;;;64.10;5.50;;;;;;;;;;5072446;28;20201;-71
2022/01/30 09:23:02;;;;;;;65.78;4.65;;;;;;;;;;5072265;28;20268;-71
2022/01/30 09:25:31;;;;;;;61.30;4.10;;;;;;;;;;5072575;28;20216;-70
2022/01/30 09:27:58;;;;;;;73.00;4.77;;;;;;;;;;5072237;28;20296;-70
2022/01/30 09:30:25;;;;;;;67.47;4.53;;;;;;;;;;5072205;28;20454;-70
2022/01/30 09:32:52;;;;;;;66.32;3.95;;;;;;;;;;5072126;28;20739;-71
2022/01/30 09:35:19;;;;;;;60.45;4.30;;;;;;;;;;5072100;28;20300;-71
2022/01/30 09:37:47;;;;;;;66.03;4.23;;;;;;;;;;5071627;28;20304;-71
2022/01/30 09:40:17;;;;;;;60.20;4.07;;;;;;;;;;5072584;28;20448;-71
2022/01/30 09:42:46;;;;;;;65.85;4.32;;;;;;;;;;5072516;28;20830;-71
2022/01/30 09:45:14;;;;;;;65.80;3.93;;;;;;;;;;5072295;28;20201;-71
2022/01/30 09:47:42;;;;;;;61.90;3.60;;;;;;;;;;5068983;28;20513;-71
2022/01/30 09:50:10;;;;;;;64.53;4.33;;;;;;;;;;5071666;28;20825;-71
2022/01/30 09:52:37;;;;;;;62.57;4.53;;;;;;;;;;5071385;28;20468;-71
2022/01/30 09:55:05;;;;;;;67.77;3.83;;;;;;;;;;5071197;28;20535;-71
2022/01/30 09:57:32;;;;;;;71.20;4.83;;;;;;;;;;5071782;28;21019;-71
2022/01/30 10:00:02;;;;;;;63.50;4.30;;;;;;;;;;5072601;28;20454;-71
2022/01/30 10:02:30;;;;;;;63.37;4.00;;;;;;;;;;5072250;28;20494;-70
2022/01/30 10:04:57;;;;;;;65.10;4.57;;;;;;;;;;5072333;28;20864;-71
2022/01/30 10:07:26;;;;;;;67.00;4.33;;;;;;;;;;5071990;28;20444;-71
2022/01/30 10:10:07;;;;;;;61.90;4.30;;;;;;;;;;5071877;28;20452;-71
2022/01/30 10:12:34;;;;;;;64.28;4.40;;;;;;;;;;5071530;28;20554;-71
2022/01/30 10:15:04;;;;;;;62.40;5.07;;;;;;;;;;5071952;28;20803;-71
2022/01/30 10:17:33;;;;;;;66.13;4.40;;;;;;;;;;5071247;28;20544;-71
2022/01/30 10:20:04;;;;;;;69.40;4.20;;;;;;;;;;5070195;28;20454;-70
2022/01/30 10:22:32;;;;;;;65.60;5.03;;;;;;;;;;5071859;28;20510;-71
2022/01/30 10:24:59;;;;;;;63.90;5.10;;;;;;;;;;5071736;28;20222;-71
2022/01/30 10:27:27;;;;;;;63.80;4.10;;;;;;;;;;5071425;28;20444;-71
2022/01/30 10:29:58;;;;;;;62.87;4.30;;;;;;;;;;5071340;28;20487;-71
2022/01/30 10:32:27;;;;;;;59.67;3.90;;;;;;;;;;5071245;28;20487;-71
2022/01/30 10:34:59;;;;;;;73.37;4.47;;;;;;;;;;5071576;28;20893;-71
2022/01/30 10:37:27;;;;;;;59.60;4.00;;;;;;;;;;5070956;28;20971;-71
2022/01/30 10:40:14;;;;;;;62.07;4.53;;;;;;;;;;5071383;28;20655;-71
2022/01/30 10:42:43;;;;;;;61.72;4.25;;;;;;;;;;5071508;28;20470;-71
2022/01/30 10:45:14;;;;;;;64.33;5.37;;;;;;;;;;5071394;28;20316;-70
2022/01/30 10:47:43;;;;;;;63.60;4.40;;;;;;;;;;5071098;28;20454;-68
2022/01/30 10:50:12;;;;;;;69.53;4.13;;;;;;;;;;5071297;28;20530;-69
2022/01/30 10:52:49;;;;;;;66.80;4.40;;;;;;;;;;5071106;28;20842;-69
2022/01/30 10:55:16;;;;;;;71.33;5.20;;;;;;;;;;5071494;28;20940;-71
2022/01/30 10:57:46;;;;;;;64.40;3.90;;;;;;;;;;5071516;28;20483;-70
2022/01/30 11:00:13;;;;;;;63.03;3.77;;;;;;;;;;5071876;28;21039;-71
2022/01/30 11:02:40;;;;;;;63.23;3.77;;;;;;;;;;5072534;28;20472;-69
2022/01/30 11:05:13;;;;;;;59.80;3.70;;;;;;;;;;5071576;28;20945;-73
2022/01/30 11:07:40;;;;;;;67.10;4.13;;;;;;;;;;5071177;28;21055;-70
2022/01/30 11:10:13;;;;;;;61.90;3.50;;;;;;;;;;5071163;28;20493;-69
2022/01/30 11:12:46;;;;;;;60.27;3.73;;;;;;;;;;5070816;28;20479;-71
2022/01/30 11:15:23;;;;;;;62.23;4.27;;;;;;;;;;5072448;28;20944;-71
2022/01/30 11:17:51;;;;;;;66.30;6.37;;;;;;;;;;5070627;28;20451;-72
2022/01/30 11:20:19;;;;;;;64.73;3.97;;;;;;;;;;5071497;28;21022;-70
2022/01/30 11:22:47;;;;;;;61.40;4.50;;;;;;;;;;5071301;28;20468;-70
2022/01/30 11:25:15;;;;;;;63.70;4.40;;;;;;;;;;5071188;28;20489;-72
2022/01/30 11:27:46;;;;;;;62.97;3.73;;;;;;;;;;5070836;28;20804;-73
2022/01/30 11:30:15;;;;;;;64.20;4.20;;;;;;;;;;5071314;28;20458;-73
2022/01/30 11:32:42;;;;;;;63.60;4.30;;;;;;;;;;5070475;28;20467;-72
2022/01/30 11:35:10;;;;;;;63.73;3.50;;;;;;;;;;5070974;28;20940;-71
2022/01/30 11:37:39;;;;;;;66.20;3.63;;;;;;;;;;5070859;28;20452;-69
2022/01/30 11:40:13;;;;;;;61.90;3.90;;;;;;;;;;5072710;28;20460;-70
2022/01/30 11:42:42;;;;;;;65.10;4.07;;;;;;;;;;5074602;28;20566;-70
2022/01/30 11:45:14;;;;;;;62.83;4.13;;;;;;;;;;5074576;28;20537;-70
2022/01/30 11:47:45;;;;;;;64.43;4.23;;;;;;;;;;5074077;28;20894;-69
2022/01/30 11:50:13;;;;;;;66.47;4.53;;;;;;;;;;5074183;28;20528;-70
2022/01/30 11:52:58;;;;;;;64.67;4.20;;;;;;;;;;5074238;28;20477;-69
2022/01/30 11:55:46;;;;;;;66.50;4.63;;;;;;;;;;5074551;28;20650;-70
2022/01/30 11:58:32;;;;;;;61.20;4.03;;;;;;;;;;5074288;28;20476;-70
2022/01/30 12:01:00;;;;;;;62.63;4.20;;;;;;;;;;5074037;28;20452;-70
2022/01/30 12:03:28;;;;;;;63.67;4.60;;;;;;;;;;5074297;28;20824;-70
2022/01/30 12:05:56;;;;;;;62.87;3.70;;;;;;;;;;5074180;28;20483;-70
2022/01/30 12:08:41;;;;;;;63.43;3.67;;;;;;;;;;5073957;28;20460;-70
2022/01/30 12:11:34;;;;;;;61.90;3.63;;;;;;;;;;5060821;28;20478;-71
2022/01/30 12:14:02;;;;;;;62.80;4.50;;;;;;;;;;5053345;28;20469;-70
2022/01/30 12:16:44;;;;;;;64.63;4.87;;;;;;;;;;5053960;28;20544;-70
2022/01/30 12:19:13;;;;;;;67.13;4.20;;;;;;;;;;5053055;28;20463;-70
2022/01/30 12:21:40;;;;;;;62.90;4.23;;;;;;;;;;5053852;28;20453;-70
2022/01/30 12:24:22;;;;;;;62.50;4.10;;;;;;;;;;5053355;28;20575;-71
2022/01/30 12:26:54;;;;;;;68.17;4.50;;;;;;;;;;5054030;28;20449;-70
2022/01/30 12:29:35;;;;;;;68.90;4.67;;;;;;;;;;5053526;28;20453;-71
2022/01/30 12:32:29;;;;;;;62.17;4.40;;;;;;;;;;5053701;28;20548;-71
2022/01/30 12:35:03;;;;;;;66.47;4.37;;;;;;;;;;5053650;28;20840;-72
2022/01/30 12:37:31;;;;;;;63.50;4.37;;;;;;;;;;5053204;28;20453;-71
2022/01/30 12:40:00;;;;;;;61.60;4.40;;;;;;;;;;5053622;28;20615;-71
2022/01/30 12:42:32;;;;;;;67.67;4.97;;;;;;;;;;5061988;28;20480;-70
2022/01/30 12:45:00;;;;;;;62.40;4.30;;;;;;;;;;5073059;28;20493;-71
2022/01/30 12:47:28;;;;;;;66.00;4.57;;;;;;;;;;5072993;28;20444;-70
2022/01/30 12:49:58;;;;;;;63.40;4.00;;;;;;;;;;5072132;28;20444;-71
2022/01/30 12:52:33;;;;;;;64.73;4.27;;;;;;;;;;5065850;28;20485;-71
2022/01/30 12:55:08;;;;;;;65.53;4.37;;;;;;;;;;5053495;28;20474;-71
2022/01/30 12:57:37;;;;;;;62.50;4.03;;;;;;;;;;5052746;28;20448;-73
2022/01/30 13:00:06;;;;;;;64.27;4.00;;;;;;;;;;5053311;28;20449;-73
2022/01/30 13:02:36;;;;;;;65.67;4.20;;;;;;;;;;5053025;28;20477;-71
2022/01/30 13:05:04;;;;;;;62.80;4.53;;;;;;;;;;5052846;28;20578;-71
2022/01/30 13:07:32;;;;;;;62.17;4.00;;;;;;;;;;5052610;28;20455;-71
2022/01/30 13:10:06;;;;;;;66.47;4.63;;;;;;;;;;5052752;28;20535;-71
2022/01/30 13:12:33;;;;;;;62.87;4.07;;;;;;;;;;5052851;28;20504;-72
2022/01/30 13:15:05;;;;;;;63.20;4.10;;;;;;;;;;5052977;28;20529;-72
2022/01/30 13:17:32;;;;;;;63.50;3.80;;;;;;;;;;5052768;28;20445;-72
2022/01/30 13:20:00;;;;;;;65.70;4.33;;;;;;;;;;5052608;28;20452;-72
2022/01/30 13:22:29;;;;;;;63.17;3.77;;;;;;;;;;5052252;28;20856;-72
2022/01/30 13:24:56;;;;;;;61.10;3.70;;;;;;;;;;5065917;28;20514;-71
2022/01/30 13:27:24;;;;;;;64.10;4.07;;;;;;;;;;5072468;28;20447;-72
2022/01/30 13:29:53;;;;;;;65.13;3.83;;;;;;;;;;5072582;28;20458;-72
2022/01/30 13:32:23;;;;;;;61.80;3.90;;;;;;;;;;5072185;28;20518;-72
2022/01/30 13:34:50;;;;;;;66.90;4.80;;;;;;;;;;5072155;28;20807;-71
2022/01/30 13:37:19;;;;;;;60.50;4.20;;;;;;;;;;5072450;28;20814;-71
2022/01/30 13:39:50;;;;;;;61.97;4.10;;;;;;;;;;5072516;28;20478;-71
2022/01/30 13:48:02;;;;;;;65.93;5.60;;;;;;;;;;5072215;28;20447;-71
2022/01/30 13:50:33;;;;;;;71.17;5.30;;;;;;;;;;5072354;28;20448;-71
2022/01/30 13:53:01;;;;;;;67.90;5.10;;;;;;;;;;5072063;28;20499;-71
2022/01/30 13:55:28;;;;;;;60.53;3.87;;;;;;;;;;5070088;28;20785;-71
2022/01/30 13:57:57;;;;;;;62.83;4.97;;;;;;;;;;5072022;28;20474;-72
2022/01/30 14:00:25;;;;;;;63.53;4.43;;;;;;;;;;5072368;28;20455;-71
2022/01/30 14:02:52;;;;;;;73.60;8.50;;;;;;;;;;5072014;28;20474;-71
2022/01/30 14:05:25;;;;;;;64.50;4.93;;;;;;;;;;5072020;28;20476;-71
2022/01/30 14:07:52;;;;;;;61.37;3.80;;;;;;;;;;5071721;28;20444;-72
2022/01/30 14:10:21;;;;;;;62.10;4.43;;;;;;;;;;5071736;28;20453;-71
2022/01/30 14:12:49;;;;;;;62.43;4.90;;;;;;;;;;5072023;28;20479;-71
2022/01/30 14:15:20;;;;;;;65.17;4.87;;;;;;;;;;5072049;28;20539;-71
2022/01/30 14:17:49;;;;;;;66.27;4.90;;;;;;;;;;5071639;28;20538;-71
2022/01/30 14:20:18;;;;;;;60.87;4.10;;;;;;;;;;5072205;28;20927;-71
2022/01/30 14:23:03;;;;;;;72.70;5.33;;;;;;;;;;5071523;28;20471;-71
2022/01/30 14:25:31;;;;;;;68.10;5.17;;;;;;;;;;5071637;28;20529;-71
2022/01/30 14:27:58;;;;;;;59.67;3.73;;;;;;;;;;5069437;28;20459;-71
2022/01/30 14:30:35;;;;;;;62.90;4.60;;;;;;;;;;5072033;28;20444;-71
2022/01/30 14:33:02;;;;;;;62.37;3.70;;;;;;;;;;5071437;28;20482;-71
2022/01/30 14:35:35;;;;;;;65.20;4.33;;;;;;;;;;5071522;28;20470;-71
2022/01/30 14:38:04;;;;;;;63.17;4.10;;;;;;;;;;5071520;28;20559;-71
2022/01/30 14:40:35;;;;;;;60.53;3.73;;;;;;;;;;5071834;28;20698;-72
2022/01/30 14:43:02;;;;;;;61.10;3.43;;;;;;;;;;5071532;28;20475;-71
2022/01/30 14:45:30;;;;;;;62.07;3.50;;;;;;;;;;5071532;28;20488;-71
2022/01/30 14:47:57;;;;;;;65.97;3.90;;;;;;;;;;5071228;28;20455;-71
2022/01/30 14:50:24;;;;;;;58.80;3.53;;;;;;;;;;5071591;28;20460;-71
2022/01/30 14:52:51;;;;;;;78.00;4.10;;;;;;;;;;5071631;28;20904;-72
2022/01/30 14:55:20;;;;;;;61.50;3.90;;;;;;;;;;5071412;28;20456;-72
2022/01/30 14:57:48;;;;;;;61.30;4.20;;;;;;;;;;5069574;28;20888;-71
2022/01/30 15:00:18;;;;;;;65.13;4.33;;;;;;;;;;5071346;28;20941;-70
2022/01/30 15:02:45;;;;;;;64.30;4.10;;;;;;;;;;5071459;28;20468;-70
2022/01/30 15:05:12;;;;;;;64.90;3.93;;;;;;;;;;5071206;28;20570;-71
2022/01/30 15:07:40;;;;;;;65.90;4.00;;;;;;;;;;5071209;28;20459;-68
2022/01/30 15:10:07;;;;;;;63.40;4.07;;;;;;;;;;5071625;28;20444;-72
2022/01/30 15:12:36;;;;;;;66.10;4.40;;;;;;;;;;5071800;28;20491;-70
2022/01/30 15:15:04;;;;;;;61.10;3.60;;;;;;;;;;5076354;28;20488;-71
2022/01/30 15:17:33;;;;;;;60.57;3.43;;;;;;;;;;5077901;28;20455;-71
2022/01/30 15:20:01;;;;;;;63.53;4.13;;;;;;;;;;5077340;28;20958;-71
2022/01/30 15:22:30;;;;;;;71.20;4.17;;;;;;;;;;5076531;28;20468;-72